Kodiak, AK

7:44 PM AKDT on September 21, 2014 (GMT -0800)
Seldovia | Change Station
CLOSE
Current Station
Airport
Location: Seldovia,
Elevation: 30 ft
Nearby Weather Stations

Elev 30 ft 59.44 °N, 151.70 °W | Updated 51 minutes ago

Clear
Clear
49 °F
Feels Like 49 °F
N
0
Wind Variable Wind from North

Today
High -- | Low -- °F
--% Chance of Precip.
Yesterday
High -- | Low -- °F
Precip. -- in
7:53 AM 8:11 PM
Waning Crescent, 4% visible
Pressure 29.40 in
Visibility 10.0 miles
Clouds Clear
Dew Point 46 °F
Humidity 90%
Rainfall 0.01 in
Snow Depth 0 in , 0 in , 0 in
UV 0 out of 12
Pollen Not available.
Air Quality Not available.
Flu Activity Not available.
METAR PASO 220253Z AUTO 00000KT 10SM CLR 09/08 A2939 RMK AO2 SLP954 T00940078 56020 TSNO $

More Conditions Fewer Conditions

Pressure 29.40 in
Visibility 10.0 miles
Clouds Clear
Dew Point 46 °F
Humidity 90%
Rainfall 0.01 in
Snow Depth 0 in , 0 in , 0 in
UV 0 out of 12
Pollen Not available.
Air Quality Not available.
Flu Activity Not available.
METAR PASO 220253Z AUTO 00000KT 10SM CLR 09/08 A2939 RMK AO2 SLP954 T00940078 56020 TSNO $

More Conditions Fewer Conditions

10-Day Weather Forecast

Almanac

Astronomy

Sep. 21, 2014 Rise Set
Actual Time 7:53 AM AKDT 8:11 PM AKDT
Civil Twilight 7:13 AM AKDT 8:50 PM AKDT
Nautical Twilight 6:26 AM AKDT 9:36 PM AKDT
Astronomical Twilight 5:36 AM AKDT 10:27 PM AKDT
Moon 5:14 AM AKDT (9/21) 7:08 PM AKDT (9/21)
Length of Visible Light 13h 36m
Length of Day
12h 18m
Tomorrow will be 4m 56s shorter.
Waning Crescent, 4% of the Moon is Illuminated
Today
Waning Crescent
Sep 24
New
Oct 1
First Quarter
Oct 8
Full
Oct 15
Last Quarter

Today's Extremes

State Highs State Lows

Community

WunderPhotos

Upload Photos

1,755,382 photos uploaded!

WunderBlogs® & News

Nearby

Snow Depth

Station Depth Elevation
Fort Yukon 0 in 430 ft
Gobblers Knob 0 in 2030 ft
Port Graham 0 in 300 ft
Pargon Creek 0 in 300 ft
Summit Creek 0 in 1400 ft

Earthquake Activity

City Distance Mag. Time & Date
No recent earthquake activity has been reported nearby.
Minimum magnitude displayed is 2.5.

Coastal Water Temperatures

Place Temperature
No Stations Reporting

Nearby Weather Stations